Latest Weather Observations for Tasman Island

IDT60801

Issued at 2:05 pm EST Monday 22 September 2014 (issued every 30 minutes, with the page automatically refreshed every 10 minutes)

About weather observations | Map of weather stations | Latest weather observations for TAS | Other Formats
Station Details ID: 094155 Name: TASMAN ISLAND Lat: -43.24 Lon: 148.00 Height: 240.0 m
Data from the previous 72 hours. | See also: Recent months at Tasman Island
Date/Time
EST
Temp
°C
App
Temp
°C
Dew
Point
Rel
Hum
%
Delta-T
°C
Wind Press
QNH
hPa
Press
MSL
hPa
Rain
since 9 am
mm
Dir
 
Spd
km/h
Gust
km/h
Spd
kts
Gust
kts
22/02:00pm 16.7 14.4 8.9 60 4.1 NNE 11 13 6 7 1022.8 1023.2 0.0
22/01:30pm 15.9 13.4 9.8 67 3.2 NNE 13 17 7 9 1023.0 1023.4 0.0
22/01:00pm 15.8 13.8 10.1 69 3.0 N 11 15 6 8 1023.6 1023.9 0.0
22/12:30pm 15.3 12.5 9.9 70 2.8 N 15 19 8 10 1023.9 1024.2 0.0
22/12:00pm 15.4 12.8 10.6 73 2.6 N 15 20 8 11 1024.4 1024.7 0.0
22/11:30am 13.9 10.7 10.1 78 2.0 NNE 17 26 9 14 1024.7 1025.0 0.0
22/11:00am 13.5 10.4 10.3 81 1.7 NNE 17 26 9 14 1025.0 1025.3 0.0
22/10:30am 12.9 8.7 9.7 81 1.7 N 22 32 12 17 1025.1 1025.4 0.0
22/10:00am 12.5 8.3 9.9 84 1.3 NNE 22 33 12 18 1025.5 1025.8 0.0
22/09:30am 12.3 7.4 9.9 85 1.2 N 26 37 14 20 1025.9 1026.2 0.0
22/09:00am 11.8 7.0 10.2 90 0.8 N 26 37 14 20 1026.0 1026.3 0.2
22/08:30am 11.0 5.9 10.5 97 0.3 N 28 41 15 22 1026.1 1026.4 0.2
22/08:00am 10.5 6.0 10.2 98 0.2 NNE 24 37 13 20 1026.1 1026.4 0.2
22/07:30am 10.1 4.8 10.0 99 0.1 NNE 28 39 15 21 1026.3 1026.7 0.2
22/07:00am 10.0 5.1 9.9 99 0.1 NNE 26 33 14 18 1026.5 1026.9 0.2
22/06:30am 9.6 4.2 9.5 99 0.1 N 28 41 15 22 1026.3 1026.7 0.2
22/06:00am 9.3 4.2 9.2 99 0.0 N 26 41 14 22 1026.0 1026.3 0.2
22/05:30am 9.3 4.1 9.0 98 0.1 N 26 37 14 20 1025.7 1026.0 0.2
22/05:00am 8.7 4.4 7.8 94 0.4 N 20 26 11 14 1025.8 1026.1 0.2
22/04:30am 8.0 4.3 6.5 90 0.7 NNE 15 17 8 9 1025.8 1026.1 0.2
22/04:00am 7.3 4.6 5.4 88 0.9 N 9 15 5 8 1025.8 1026.1 0.2
22/03:30am 8.5 7.1 7.3 92 0.6 WNW 4 6 2 3 1025.8 1026.1 0.2
22/03:00am 8.6 7.3 7.5 93 0.5 WNW 4 7 2 4 1026.1 1026.4 0.2
22/02:30am 8.3 6.5 7.2 93 0.5 W 6 9 3 5 1026.3 1026.7 0.2
22/02:00am 8.3 6.3 7.1 92 0.6 WSW 7 9 4 5 1026.3 1026.7 0.2
22/01:30am 8.8 6.9 7.4 91 0.7 W 7 9 4 5 1026.5 1026.9 0.2
22/01:00am 8.7 6.7 7.2 90 0.7 SW 7 11 4 6 1026.6 1027.0 0.2
22/12:30am 9.2 6.6 7.8 91 0.7 SW 11 22 6 12 1026.7 1027.1 0.2
22/12:00am 9.1 6.5 7.7 91 0.7 WSW 11 20 6 11 1026.7 1027.1 0.2
 
Date/Time
EST
Temp
°C
App
Temp
°C
Dew
Point
Rel
Hum
%
Delta-T
°C
Wind Press
QNH
hPa
Press
MSL
hPa
Rain
since 9 am
mm
Dir
 
Spd
km/h
Gust
km/h
Spd
kts
Gust
kts
21/11:30pm 9.3 6.3 7.9 91 0.7 WSW 13 20 7 11 1026.9 1027.3 0.2
21/11:00pm 9.3 5.9 7.7 90 0.8 WSW 15 24 8 13 1027.0 1027.4 0.2
21/10:30pm 9.6 6.3 8.0 90 0.8 W 15 28 8 15 1027.3 1027.7 0.2
21/10:00pm 9.7 5.6 8.0 89 0.8 SW 19 32 10 17 1027.3 1027.7 0.2
21/09:30pm 9.8 5.6 8.2 90 0.8 SW 20 39 11 21 1027.2 1027.6 0.2
21/09:00pm 9.9 6.0 8.5 91 0.7 SW 19 41 10 22 1027.2 1027.6 0.2
21/08:30pm 9.8 7.0 8.4 91 0.7 SW 13 28 7 15 1027.0 1027.4 0.2
21/08:00pm 10.0 6.4 8.3 89 0.8 SW 17 39 9 21 1026.9 1027.3 0.2
21/07:30pm 10.1 5.6 8.5 90 0.8 SW 22 48 12 26 1026.6 1027.0 0.2
21/07:00pm 10.0 5.8 8.4 90 0.8 SW 20 46 11 25 1026.4 1026.8 0.2
21/06:32pm 10.1 4.4 8.4 89 0.8 SSW 28 54 15 29 1026.0 1026.3 0.2
21/06:30pm 10.2 4.9 8.6 90 0.8 SSW 26 54 14 29 1026.0 1026.3 0.2
21/06:00pm 10.3 4.7 8.7 90 0.8 SSW 28 46 15 25 1025.7 1026.0 0.2
21/05:47pm 10.4 4.8 8.7 89 0.8 SSW 28 56 15 30 1025.5 1025.8 0.2
21/05:30pm 10.6 5.8 8.7 88 0.9 SSW 24 48 13 26 1025.5 1025.8 0.2
21/05:08pm 10.8 5.2 8.7 87 1.0 SSW 28 50 15 27 1025.3 1025.6 0.2
21/05:00pm 10.9 6.1 8.8 87 1.0 SSW 24 48 13 26 1025.3 1025.6 0.2
21/04:55pm 10.9 5.3 8.8 87 1.1 SSW 28 48 15 26 1025.3 1025.6 0.2
21/04:30pm 11.2 5.6 8.9 86 1.2 SW 28 46 15 25 1025.4 1025.7 0.2
21/04:19pm 11.4 5.9 9.0 85 1.2 SW 28 48 15 26 1025.2 1025.5 0.2
21/04:00pm 11.6 7.7 8.8 83 1.4 SW 19 41 10 22 1025.1 1025.4 0.2
21/03:30pm 12.2 9.6 9.2 82 1.5 SW 13 35 7 19 1024.9 1025.2 0.2
21/03:00pm 12.2 7.9 9.2 82 1.5 WSW 22 41 12 22 1025.0 1025.3 0.2
21/02:30pm 12.7 8.9 9.2 79 1.8 WSW 19 35 10 19 1024.9 1025.2 0.2
21/02:00pm 12.6 8.6 8.9 78 1.9 W 20 41 11 22 1024.9 1025.2 0.2
21/01:30pm 12.8 8.8 8.3 74 2.3 W 19 35 10 19 1024.9 1025.2 0.2
21/01:00pm 13.1 9.0 8.0 71 2.5 W 19 33 10 18 1025.0 1025.3 0.2
21/12:30pm 13.4 9.5 7.0 65 3.1 W 17 33 9 18 1025.0 1025.3 0.2
21/12:00pm 12.7 8.9 7.4 70 2.6 W 17 35 9 19 1025.1 1025.4 0.2
21/11:30am 12.5 8.3 7.4 71 2.5 W 19 35 10 19 1025.2 1025.5 0.0
21/11:00am 11.8 7.1 7.9 77 1.9 W 22 41 12 22 1025.3 1025.6 0.0
21/10:30am 11.7 8.1 8.4 80 1.6 W 17 33 9 18 1025.3 1025.6 0.0
21/10:00am 11.5 9.5 8.5 82 1.5 W 9 32 5 17 1025.4 1025.7 0.0
21/09:30am 11.0 7.7 8.2 83 1.4 W 15 33 8 18 1025.4 1025.7 0.0
21/09:00am 10.6 6.6 8.9 89 0.8 WSW 20 43 11 23 1025.2 1025.5 0.0
21/08:30am 9.9 5.5 8.8 93 0.5 WSW 22 43 12 23 1025.0 1025.3 0.0
21/08:00am 9.8 6.3 8.7 93 0.5 WSW 17 50 9 27 1024.7 1025.0 0.0
21/07:30am 9.8 5.0 8.9 94 0.4 SW 24 54 13 29 1024.3 1024.6 0.0
21/07:00am 9.8 5.4 9.0 95 0.4 WSW 22 52 12 28 1023.9 1024.2 0.0
21/06:30am 9.7 4.9 8.9 95 0.4 SW 24 61 13 33 1023.6 1023.9 0.0
21/06:12am 10.1 4.6 9.2 94 0.5 WSW 28 56 15 30 1023.5 1023.8 0.0
21/06:00am 9.9 4.7 8.7 92 0.6 SW 26 52 14 28 1023.3 1023.6 0.0
21/05:30am 10.0 6.8 6.7 80 1.6 W 13 41 7 22 1023.3 1023.6 0.0
21/05:00am 10.1 7.2 6.3 77 1.8 WNW 11 32 6 17 1023.2 1023.5 0.0
21/04:30am 9.9 6.5 5.9 76 1.9 NW 13 35 7 19 1023.0 1023.4 0.0
21/04:00am 9.7 6.2 5.5 75 1.9 WNW 13 32 7 17 1022.8 1023.2 0.0
21/03:30am 9.6 6.4 5.2 74 2.0 W 11 32 6 17 1023.0 1023.4 0.0
21/03:00am 9.5 6.2 4.7 72 2.2 W 11 35 6 19 1023.0 1023.4 0.0
21/02:30am 9.6 6.3 4.6 71 2.3 NW 11 28 6 15 1023.0 1023.4 0.0
21/02:00am 9.6 6.3 4.8 72 2.2 W 11 35 6 19 1023.6 1023.9 0.0
21/01:30am 9.6 6.3 4.6 71 2.3 NW 11 39 6 21 1023.7 1024.0 0.0
21/01:00am 9.4 6.5 4.6 72 2.2 WSW 9 32 5 17 1023.8 1024.1 0.0
21/12:30am 9.3 6.4 4.5 72 2.2 W 9 28 5 15 1023.7 1024.0 0.0
21/12:00am 9.0 6.4 4.4 73 2.0 WSW 7 28 4 15 1023.8 1024.1 0.0
 
Date/Time
EST
Temp
°C
App
Temp
°C
Dew
Point
Rel
Hum
%
Delta-T
°C
Wind Press
QNH
hPa
Press
MSL
hPa
Rain
since 9 am
mm
Dir
 
Spd
km/h
Gust
km/h
Spd
kts
Gust
kts
20/11:30pm 9.3 6.4 4.5 72 2.2 N 9 30 5 16 1023.7 1024.0 0.0
20/11:00pm 9.5 6.2 4.5 71 2.2 NW 11 35 6 19 1023.9 1024.2 0.0
20/10:30pm 9.5 6.2 4.3 70 2.3 WNW 11 41 6 22 1024.1 1024.4 0.0
20/10:00pm 9.7 6.8 4.5 70 2.3 NW 9 39 5 21 1023.9 1024.2 0.0
20/09:30pm 9.8 6.9 4.8 71 2.3 S 9 30 5 16 1024.4 1024.7 0.0
20/09:00pm 9.7 6.5 5.1 73 2.1 WSW 11 32 6 17 1024.3 1024.6 0.0
20/08:30pm 9.7 6.5 5.1 73 2.1 WSW 11 33 6 18 1024.1 1024.4 0.0
20/08:00pm 9.6 6.4 5.0 73 2.1 W 11 32 6 17 1024.1 1024.4 0.0
20/07:30pm 9.7 4.3 6.2 79 1.6 WSW 24 41 13 22 1024.0 1024.3 0.0
20/07:00pm 9.5 4.8 6.2 80 1.5 SW 20 39 11 21 1023.7 1024.0 0.0
20/06:30pm 9.9 4.5 6.3 78 1.7 WSW 24 46 13 25 1023.0 1023.4 0.0
20/06:00pm 9.9 4.4 5.7 75 1.9 WSW 24 43 13 23 1022.9 1023.3 0.0
20/05:30pm 10.2 5.6 5.4 72 2.2 WSW 19 43 10 23 1022.6 1022.9 0.0
20/05:00pm 10.4 5.8 5.4 71 2.3 WSW 19 41 10 22 1022.4 1022.7 0.0
20/04:30pm 10.4 3.6 5.2 70 2.4 SW 30 56 16 30 1022.2 1022.5 0.0
20/04:24pm 10.4 4.0 5.4 71 2.3 SW 28 56 15 30 1022.2 1022.5 0.0
20/04:00pm 10.6 4.9 6.7 77 1.9 SW 26 56 14 30 1022.0 1022.3 0.0
20/03:30pm 10.0 4.0 6.9 81 1.5 SW 28 56 15 30 1021.9 1022.2 0.0
20/03:25pm 10.5 4.5 7.0 79 1.7 SW 28 48 15 26 1022.0 1022.3 0.0
20/03:00pm 10.5 5.5 6.3 75 2.0 SW 22 48 12 26 1021.8 1022.1 0.0
20/02:34pm 10.7 4.6 6.5 75 2.0 SW 28 63 15 34 1021.7 1022.0 0.0
20/02:30pm 11.0 5.3 6.9 76 2.0 SW 26 63 14 34 1021.7 1022.0 0.0
20/02:00pm 9.9 2.9 6.8 81 1.5 SW 33 67 18 36 1021.7 1022.0 0.0
20/01:40pm 10.5 4.7 7.9 84 1.3 SW 28 59 15 32 1021.5 1021.8 0.0
20/01:30pm 10.7 6.4 7.9 83 1.4 SW 20 52 11 28 1021.7 1022.0 0.0
20/01:00pm 10.7 6.9 7.4 80 1.6 SW 17 52 9 28 1022.0 1022.3 0.0
20/12:30pm 10.5 6.0 6.8 78 1.8 WSW 20 46 11 25 1022.1 1022.4 0.0
20/12:00pm 10.9 6.1 7.2 78 1.8 WSW 22 50 12 27 1022.0 1022.3 0.0
20/11:30am 10.4 5.9 6.0 74 2.1 W 19 41 10 22 1022.2 1022.5 0.0
20/11:00am 10.5 6.0 7.0 79 1.7 WSW 20 48 11 26 1022.1 1022.4 0.0
20/10:30am 9.7 5.4 6.8 82 1.4 WSW 19 50 10 27 1021.9 1022.2 0.0
20/10:02am 9.4 3.5 7.5 88 0.9 WSW 28 56 15 30 1021.8 1022.1 0.0
20/10:00am 9.5 4.0 7.6 88 0.9 WSW 26 56 14 30 1021.9 1022.2 0.0
20/09:38am 9.1 3.1 7.2 88 0.9 WSW 28 50 15 27 1021.8 1022.1 0.0
20/09:30am 9.3 4.4 7.1 86 1.0 WSW 22 46 12 25 1021.7 1022.0 0.0
20/09:00am 9.4 3.7 6.8 84 1.2 WSW 26 54 14 29 1021.6 1021.9 6.2
20/08:35am 9.1 3.0 6.7 85 1.1 WSW 28 57 15 31 1021.6 1021.9 6.2
20/08:30am 9.1 3.8 6.7 85 1.1 WSW 24 44 13 24 1021.5 1021.8 6.2
20/08:00am 9.1 3.8 6.7 85 1.1 WSW 24 46 13 25 1021.5 1021.8 6.2
20/07:30am 8.7 3.2 7.5 92 0.6 SW 26 57 14 31 1021.1 1021.4 6.2
20/07:10am 8.8 2.9 7.3 90 0.7 SW 28 56 15 30 1020.8 1021.1 6.2
20/07:00am 8.9 3.4 7.4 90 0.7 WSW 26 57 14 31 1020.9 1021.2 6.2
20/06:30am 8.8 3.6 7.3 90 0.7 SW 24 50 13 27 1020.4 1020.7 6.2
20/06:00am 8.2 2.3 7.4 95 0.4 SW 28 63 15 34 1020.0 1020.3 6.2
20/05:30am 8.7 2.0 7.3 91 0.7 SW 32 61 17 33 1019.6 1019.9 6.2
20/05:00am 8.7 2.8 7.3 91 0.7 SW 28 52 15 28 1019.4 1019.7 6.2
20/04:30am 8.9 2.1 7.0 88 0.9 SW 32 69 17 37 1019.1 1019.3 6.2
20/04:00am 8.9 2.1 7.7 92 0.6 SW 33 63 18 34 1018.7 1019.0 6.2
20/03:30am 8.8 1.4 8.4 97 0.2 SW 37 69 20 37 1018.5 1018.8 6.2
20/03:00am 8.9 3.2 8.3 96 0.3 SW 28 65 15 35 1018.1 1018.4 6.0
20/02:30am 9.2 3.5 8.4 95 0.4 SW 28 65 15 35 1017.8 1018.1 6.0
20/02:08am 9.2 3.6 8.6 96 0.3 SW 28 56 15 30 1017.8 1018.1 6.0
20/02:00am 9.1 3.8 8.5 96 0.3 SW 26 54 14 29 1017.7 1018.0 6.0
20/01:32am 8.7 3.0 8.3 97 0.2 SW 28 61 15 33 1017.5 1017.8 6.0
20/01:30am 8.9 3.6 8.6 98 0.1 SW 26 67 14 36 1017.6 1017.9 6.0
20/01:00am 9.0 3.4 8.9 99 0.0 SW 28 59 15 32 1017.4 1017.7 6.0
20/12:30am 8.9 3.3 8.8 99 0.0 SW 28 65 15 35 1017.5 1017.8 6.0
20/12:00am 8.9 -0.5 8.6 98 0.1 SW 48 70 26 38 1017.5 1017.8 5.2
 
Date/Time
EST
Temp
°C
App
Temp
°C
Dew
Point
Rel
Hum
%
Delta-T
°C
Wind Press
QNH
hPa
Press
MSL
hPa
Rain
since 9 am
mm
Dir
 
Spd
km/h
Gust
km/h
Spd
kts
Gust
kts
19/11:30pm 9.1 2.6 8.3 95 0.4 SW 32 54 17 29 1017.5 1017.8 4.8
19/11:00pm 9.1 2.6 8.2 94 0.4 SW 32 69 17 37 1017.4 1017.7 4.8
19/10:30pm 9.5 0.9 8.3 92 0.6 SSW 43 69 23 37 1017.3 1017.6 4.8
19/10:00pm 8.8 -0.3 8.4 97 0.2 SSW 46 82 25 44 1017.1 1017.4 4.8
19/09:30pm 8.9 1.6 8.8 99 0.0 SSW 37 74 20 40 1016.9 1017.2 4.8
19/09:23pm 8.8 1.9 8.7 99 0.0 SSW 35 59 19 32 1016.7 1017.0 4.8
19/09:15pm 8.7 -2.4 8.6 99 0.0 SW 57 80 31 43 1016.4 1016.7 4.6
19/09:00pm 9.0 2.1 8.9 99 0.0 SW 35 70 19 38 1016.4 1016.7 4.2
19/08:30pm 9.1 2.8 9.0 99 0.0 SW 32 69 17 37 1016.3 1016.6 4.0
19/08:00pm 9.1 3.6 9.0 99 0.0 SW 28 63 15 34 1016.2 1016.5 3.6
19/07:30pm 8.8 3.2 8.7 99 0.0 SW 28 56 15 30 1016.0 1016.3 3.4
19/07:00pm 8.6 2.0 8.5 99 0.0 SW 33 69 18 37 1015.6 1015.8 3.4
19/06:30pm 9.1 2.8 8.8 98 0.1 WSW 32 70 17 38 1014.7 1014.9 2.2
19/06:00pm 8.9 2.8 8.3 96 0.3 WSW 30 61 16 33 1014.7 1014.9 2.2
19/05:30pm 8.7 2.8 7.3 91 0.7 WSW 28 67 15 36 1014.6 1014.8 2.2
19/05:00pm 9.1 2.7 7.1 87 1.0 WSW 30 67 16 36 1014.3 1014.6 2.2
19/04:30pm 9.4 2.6 7.5 88 0.9 WSW 33 74 18 40 1014.0 1014.3 2.2
19/04:00pm 9.1 1.2 6.0 81 1.4 WSW 37 78 20 42 1013.2 1013.5 2.2
19/03:30pm 10.0 2.0 5.6 74 2.0 WSW 37 76 20 41 1013.3 1013.6 2.2
19/03:00pm 9.9 2.9 4.3 68 2.5 WSW 30 67 16 36 1013.1 1013.4 2.2
19/02:30pm 9.9 2.5 5.1 72 2.2 WSW 33 67 18 36 1012.7 1013.0 2.2

Other Formats:

Comma delimited format used in spreadsheet applications
http://www.bom.gov.au/fwo/IDT60801/IDT60801.95986.axf

JavaScript Object Notation format (JSON) in row-major order
http://www.bom.gov.au/fwo/IDT60801/IDT60801.95986.json